METAR AND TAF INFORMATION
METAR FOR WAMM
ADDS - METARS form results

(1827 UTC 17 January 2020)
Data provider http://aviationweather.gov/metar/data/
 
METAR text: WAMM 171800Z VRB01KT 9000 FEW021 23/23 Q1010 NOSIG
Conditions at: WAMM (MENADO/SAM RATUL, ID) observed 1800 UTC 17 January 2020
Temperature: 23.0°C (73°F)
Dewpoint: 23.0°C (73°F) [RH = 100%]
Pressure (altimeter): 29.82 inches Hg (1010.0 mb)
Winds: variable direction winds at 1 MPH (1 knots; 0.5 m/s)
Visibility: 6 miles ( 9 km)
Ceiling: at least 12,000 feet AGL
Clouds: few clouds at 2100 feet AGL
Weather: no significant weather observed at this time

METAR text: WAMM 171730Z VRB01KT 9000 FEW021 23/23 Q1011 NOSIG
Conditions at: WAMM (MENADO/SAM RATUL, ID) observed 1730 UTC 17 January 2020
Temperature: 23.0°C (73°F)
Dewpoint: 23.0°C (73°F) [RH = 100%]
Pressure (altimeter): 29.85 inches Hg (1011.0 mb)
Winds: variable direction winds at 1 MPH (1 knots; 0.5 m/s)
Visibility: 6 miles ( 9 km)
Ceiling: at least 12,000 feet AGL
Clouds: few clouds at 2100 feet AGL
Weather: no significant weather observed at this time

Forecast for: WAMM (MENADO/SAM RATUL, ID)
Text: TAF WAMM 171100Z 1712/1818 18003KT 7000 RA SCT018
Forecast period: 1200 UTC 17 January 2020 to 1800 UTC 18 January 2020
Forecast type: FROM: standard forecast or significant change
Winds: from the S (180 degrees) at 3 MPH (3 knots; 1.5 m/s)
Visibility: 4 miles (7 km)
Ceiling: at least 12,000 feet AGL
Clouds: scattered clouds at 1800 feet AGL
Weather: RA  (moderate rain)
Text: BECMG 1712/1714 NSW
Forecast period: 1200 UTC 17 January 2020 to 1800 UTC 18 January 2020
Forecast type: BECOMING: Conditions expected to become as follows by 1400 UTC 17 January 2020
Winds: from the S (180 degrees) at 3 MPH (3 knots; 1.5 m/s)
Visibility: 4 miles (7 km)
Ceiling: at least 12,000 feet AGL
Clouds: scattered clouds at 1800 feet AGL
Weather: NSW  (no significant weather)

 AIRPORT MAP

 RUNWAY INFORMATION
Runway 18 Runway length 8693 ft Runway width 148 ft
Runway elevation 270 ft Runway displaced threshold 0 ft Runway heading 182
Runway 36 Runway length 8693 ft Runway width 148 ft
Runway elevation 264 ft Runway displaced threshold 0 ft Runway heading 2

 AIRPORT FREQUENCIES
Type APP Name MANADO APP Frequency 119 MHZ
Type ATIS Name ATIS Frequency 126.4 MHZ
Type INFO Name MANADO INF Frequency 891.8 MHZ
Type TWR Name RATULANGI Frequency 118.1 MHZ

 AIRPORT NEAR NAVIGATION AIDS
Type NDB Name Manado Frequency 255 KHZ
Type VOR-DME Name Manado Frequency 114200 KHZ
Type VOR-DME Name Manado Frequency 114800 KHZ
Type NDB Name Manado Frequency 290 KHZ




Powered by Virtual Airlines Manager [v2.6.2]